Latest Weather Observations for Coondewanna

IDW60801

Issued at 5:05 pm WST Saturday 23 August 2014 (issued every 30 minutes, with the page automatically refreshed every 10 minutes)

About weather observations | Map of weather stations | Latest weather observations for WA | Other Formats
Station Details ID: 505051 Name: COONDEWANNA Lat: -22.96 Lon: 118.81 Height: 697.63 m
Data from the previous 72 hours. | See also: Recent months for locations in Western Australia
Date/Time
WST
Temp
°C
App
Temp
°C
Dew
Point
Rel
Hum
%
Delta-T
°C
Wind Press
QNH
hPa
Press
MSL
hPa
Rain
since 9 am
mm
Dir
 
Spd
km/h
Gust
km/h
Spd
kts
Gust
kts
23/05:00pm 26.5 21.2 -7.6 10 14.3 E 13 24 7 13 1021.1 1019.1 0.0
23/04:30pm 26.9 20.5 -7.3 10 14.5 ESE 19 24 10 13 1021.1 1019.1 0.0
23/04:00pm 26.8 21.5 -7.3 10 14.4 ENE 13 28 7 15 1021.1 1019.1 0.0
23/03:30pm 27.5 22.2 -6.8 10 14.7 ENE 13 26 7 14 1021.1 1019.1 0.0
23/03:00pm 27.3 21.7 -6.9 10 14.6 ENE 15 24 8 13 1021.3 1019.2 0.0
23/02:30pm 27.7 21.3 -6.6 10 14.8 ENE 19 28 10 15 1021.4 1019.3 0.0
23/02:00pm 27.5 21.0 -5.6 11 14.5 ENE 20 26 11 14 1021.5 1019.4 0.0
23/01:30pm 26.6 22.2 -6.2 11 14.1 SE 9 19 5 10 1021.5 1019.4 0.0
23/01:00pm 27.4 21.0 -6.9 10 14.7 NNE 19 30 10 16 1021.9 1019.8 0.0
23/12:30pm 26.8 21.7 -4.9 12 14.0 SSE 13 20 7 11 1022.3 1020.3 0.0
23/12:00pm 26.7 21.6 -5.0 12 13.9 NNE 13 24 7 13 1022.7 1020.7 0.0
23/11:30am 26.2 20.3 -5.4 12 13.8 NNE 17 26 9 14 1023.0 1020.9 0.0
23/11:00am 25.6 19.8 -4.8 13 13.3 NNE 17 28 9 15 1023.3 1021.2 0.0
23/10:30am 25.7 19.5 -4.7 13 13.4 NE 19 28 10 15 1023.6 1021.6 0.0
23/10:00am 25.1 20.1 -4.2 14 12.9 NE 13 20 7 11 1023.6 1021.6 0.0
23/09:30am 24.5 20.9 -3.8 15 12.5 ENE 6 15 3 8 1023.6 1021.6 0.0
23/09:00am 20.6 18.3 -2.5 21 10.1 CALM 0 0 0 0 1023.4 1021.3 0.0
23/08:30am 16.8 14.5 -2.3 27 8.1 CALM 0 0 0 0 1023.4 1021.3 0.0
23/08:00am 13.5 11.1 -2.8 32 6.6 CALM 0 0 0 0 1023.1 1021.0 0.0
23/07:30am 11.5 9.1 -3.4 35 5.9 CALM 0 0 0 0 1022.7 1020.7 0.0
23/07:00am 7.7 5.2 -3.8 44 4.3 CALM 0 0 0 0 1022.4 1020.4 0.0
23/06:30am 6.7 3.5 -3.8 47 3.9 E 4 7 2 4 1022.1 1020.0 0.0
23/06:00am 6.6 4.1 -3.6 48 3.8 E 0 0 0 0 1021.9 1019.8 0.0
23/05:30am 6.5 4.0 -3.7 48 3.8 CALM 0 0 0 0 1021.5 1019.4 0.0
23/05:00am 7.1 4.6 -4.0 45 4.1 CALM 0 0 0 0 1021.1 1019.1 0.0
23/04:30am 7.8 5.4 -3.4 45 4.2 CALM 0 0 0 0 1020.9 1018.8 0.0
23/04:00am 7.9 5.4 -3.9 43 4.4 CALM 0 4 0 2 1020.9 1018.8 0.0
23/03:30am 8.4 4.8 -3.4 43 4.5 E 6 9 3 5 1020.6 1018.5 0.0
23/03:00am 8.6 6.1 -3.9 41 4.7 CALM 0 4 0 2 1020.6 1018.5 0.0
23/02:30am 9.2 5.6 -3.7 40 4.9 E 6 7 3 4 1020.6 1018.5 0.0
23/02:00am 9.3 6.8 -3.9 39 5.0 CALM 0 4 0 2 1020.8 1018.7 0.0
23/01:30am 10.2 7.8 -3.5 38 5.3 CALM 0 0 0 0 1020.7 1018.6 0.0
23/01:00am 10.7 7.8 -4.1 35 5.7 E 2 7 1 4 1021.0 1019.0 0.0
23/12:30am 12.7 8.9 -3.5 32 6.5 E 7 9 4 5 1021.1 1019.1 0.0
23/12:00am 13.2 9.6 -3.5 31 6.7 SSW 6 7 3 4 1021.3 1019.2 0.0
 
Date/Time
WST
Temp
°C
App
Temp
°C
Dew
Point
Rel
Hum
%
Delta-T
°C
Wind Press
QNH
hPa
Press
MSL
hPa
Rain
since 9 am
mm
Dir
 
Spd
km/h
Gust
km/h
Spd
kts
Gust
kts
22/11:30pm 12.9 10.0 -3.8 31 6.6 S 2 9 1 5 1021.3 1019.2 0.0
22/11:00pm 14.7 11.1 -3.6 28 7.4 S 6 7 3 4 1021.5 1019.4 0.0
22/10:30pm 16.4 11.5 -3.1 26 8.1 SSW 13 17 7 9 1021.5 1019.4 0.0
22/10:00pm 16.6 13.0 -3.5 25 8.3 W 6 9 3 5 1021.4 1019.3 0.0
22/09:30pm 17.8 14.6 -3.6 23 9.0 W 4 7 2 4 1021.3 1019.2 0.0
22/09:00pm 18.3 13.4 -3.2 23 9.1 E 13 17 7 9 1021.0 1019.0 0.0
22/08:30pm 17.9 14.1 -3.5 23 9.0 E 7 11 4 6 1021.0 1019.0 0.0
22/08:00pm 18.5 14.7 -3.6 22 9.3 NE 7 9 4 5 1020.7 1018.6 0.0
22/07:30pm 19.3 15.1 -3.5 21 9.7 NE 9 11 5 6 1020.4 1018.3 0.0
22/07:00pm 20.7 16.4 -4.4 18 10.6 NE 9 9 5 5 1020.0 1017.9 0.0
22/06:30pm 22.1 17.9 -4.1 17 11.3 NNE 9 11 5 6 1019.5 1017.4 0.0
22/06:00pm 23.7 19.4 -4.4 15 12.2 NNE 9 11 5 6 1019.2 1017.1 0.0
22/05:30pm 25.6 20.2 -4.8 13 13.3 NE 15 19 8 10 1018.8 1016.7 0.0
22/05:00pm 26.4 22.1 -5.3 12 13.8 NNE 9 17 5 9 1018.6 1016.5 0.0
22/04:30pm 27.2 22.8 -5.8 11 14.4 N 9 17 5 9 1018.4 1016.2 0.0
22/04:00pm 26.6 22.7 -5.1 12 13.9 E 7 11 4 6 1018.1 1016.0 0.0
22/03:30pm 27.3 21.8 -5.7 11 14.4 E 15 22 8 12 1018.0 1015.9 0.0
22/03:00pm 27.3 22.6 -4.6 12 14.2 ENE 11 17 6 9 1018.0 1015.9 0.0
22/02:30pm 27.6 21.8 -4.3 12 14.4 E 17 22 9 12 1018.0 1015.9 0.0
22/02:00pm 26.8 21.7 -4.9 12 14.0 NE 13 20 7 11 1018.5 1016.4 0.0
22/01:30pm 26.3 21.7 -4.3 13 13.6 NNE 11 17 6 9 1018.7 1016.6 0.0
22/01:00pm 27.0 21.3 -3.7 13 13.9 ENE 17 33 9 18 1019.0 1016.9 0.0
22/12:30pm 26.2 21.2 -4.4 13 13.6 ENE 13 22 7 12 1019.4 1017.3 0.0
22/12:00pm 26.1 21.9 -3.5 14 13.3 ENE 9 17 5 9 1019.9 1017.8 0.0
22/11:30am 26.0 22.1 -4.5 13 13.5 SSE 7 13 4 7 1020.2 1018.1 0.0
22/11:00am 24.6 19.8 -5.6 13 12.9 SE 11 20 6 11 1020.6 1018.5 0.0
22/10:30am 24.7 19.1 -6.6 12 13.2 ESE 15 24 8 13 1021.0 1019.0 0.0
22/10:00am 23.9 18.9 -4.3 15 12.3 SE 13 20 7 11 1021.3 1019.2 0.0
22/09:30am 22.1 19.8 -2.6 19 11.0 CALM 0 0 0 0 1021.5 1019.4 0.0
22/09:00am 19.3 15.6 -2.9 22 9.5 S 7 7 4 4 1021.6 1019.5 0.0
22/08:30am 16.2 13.6 -4.9 23 8.5 CALM 0 0 0 0 1021.5 1019.4 0.0
22/08:00am 12.3 9.6 -5.7 28 6.8 CALM 0 0 0 0 1021.4 1019.3 0.0
22/07:30am 9.1 6.4 -5.9 34 5.4 CALM 0 0 0 0 1021.0 1019.0 0.0
22/07:00am 6.3 3.3 -5.6 42 4.2 E 2 7 1 4 1020.7 1018.6 0.0
22/06:30am 5.4 2.6 -6.5 42 4.0 CALM 0 0 0 0 1020.5 1018.4 0.0
22/06:00am 6.4 3.6 -6.9 38 4.5 CALM 0 0 0 0 1020.1 1018.0 0.0
22/05:30am 8.0 3.2 -6.1 36 5.0 E 11 11 6 6 1019.8 1017.7 0.0
22/05:00am 6.5 2.4 -6.4 39 4.4 ENE 7 9 4 5 1019.4 1017.3 0.0
22/04:30am 6.3 2.4 -6.6 39 4.4 SW 6 11 3 6 1019.3 1017.2 0.0
22/04:00am 8.0 4.9 -6.5 35 5.1 E 2 7 1 4 1019.0 1016.9 0.0
22/03:30am 7.3 4.6 -6.4 37 4.8 CALM 0 0 0 0 1018.8 1016.7 0.0
22/03:00am 7.4 4.6 -6.7 36 4.9 CALM 0 0 0 0 1018.9 1016.8 0.0
22/02:30am 7.7 4.9 -7.1 34 5.1 CALM 0 0 0 0 1019.1 1017.0 0.0
22/02:00am 9.4 5.3 -6.8 31 5.7 E 7 9 4 5 1019.2 1017.1 0.0
22/01:30am 10.1 6.0 -6.7 30 6.0 ENE 7 11 4 6 1019.2 1017.1 0.0
22/01:00am 11.2 6.7 -7.1 27 6.6 E 9 9 5 5 1019.2 1017.1 0.0
22/12:30am 12.7 7.4 -6.8 25 7.2 ESE 13 15 7 8 1019.3 1017.2 0.0
22/12:00am 12.2 7.7 -6.7 26 6.9 E 9 13 5 7 1019.4 1017.3 0.0
 
Date/Time
WST
Temp
°C
App
Temp
°C
Dew
Point
Rel
Hum
%
Delta-T
°C
Wind Press
QNH
hPa
Press
MSL
hPa
Rain
since 9 am
mm
Dir
 
Spd
km/h
Gust
km/h
Spd
kts
Gust
kts
21/11:30pm 11.9 7.8 -7.0 26 6.9 W 7 9 4 5 1019.6 1017.5 0.0
21/11:00pm 12.8 8.9 -6.7 25 7.2 W 6 9 3 5 1019.6 1017.5 0.0
21/10:30pm 14.2 10.6 -7.2 22 8.0 W 4 6 2 3 1019.6 1017.5 0.0
21/10:00pm 15.8 11.7 -7.1 20 8.7 W 7 11 4 6 1019.6 1017.5 0.0
21/09:30pm 15.4 12.6 -6.8 21 8.5 CALM 0 0 0 0 1019.3 1017.2 0.0
21/09:00pm 15.7 12.9 -7.2 20 8.7 CALM 0 0 0 0 1019.1 1017.0 0.0
21/08:30pm 17.5 13.6 -7.0 18 9.5 N 6 7 3 4 1018.9 1016.8 0.0
21/08:00pm 18.5 14.3 -7.8 16 10.1 N 7 7 4 4 1018.7 1016.6 0.0
21/07:30pm 19.7 15.5 -7.6 15 10.7 N 7 7 4 4 1018.4 1016.2 0.0
21/07:00pm 21.3 16.3 -8.2 13 11.6 N 11 13 6 7 1017.9 1015.8 0.0
21/06:30pm 22.3 17.3 -8.4 12 12.2 N 11 15 6 8 1017.4 1015.3 0.0
21/06:00pm 23.1 18.5 -7.8 12 12.5 N 9 11 5 6 1017.0 1014.8 0.0
21/05:30pm 25.2 20.2 -8.5 10 13.8 N 11 19 6 10 1016.7 1014.5 0.0
21/05:00pm 26.1 20.6 -9.2 9 14.3 N 13 20 7 11 1016.5 1014.4 0.0
21/04:30pm 26.5 21.1 -8.9 9 14.5 NNE 13 20 7 11 1016.2 1014.1 0.0
21/04:00pm 26.5 21.1 -8.9 9 14.5 NNW 13 20 7 11 1016.1 1014.0 0.0
21/03:30pm 26.3 20.5 -9.1 9 14.4 NNW 15 28 8 15 1016.1 1014.0 0.0
21/03:00pm 26.6 20.0 -8.8 9 14.6 N 19 33 10 18 1016.2 1014.1 0.0
21/02:30pm 26.2 20.9 -7.8 10 14.2 N 13 20 7 11 1016.3 1014.2 0.0
21/02:00pm 26.0 20.3 -7.9 10 14.1 NNE 15 24 8 13 1016.5 1014.4 0.0
21/01:30pm 26.2 18.8 -7.8 10 14.2 NNW 24 30 13 16 1016.9 1014.7 0.0
21/01:00pm 25.3 18.9 -7.2 11 13.6 NNE 19 28 10 15 1017.4 1015.3 0.0
21/12:30pm 26.0 20.0 -6.7 11 13.9 N 17 28 9 15 1017.7 1015.6 0.0
21/12:00pm 24.4 20.5 -4.8 14 12.7 ENE 7 26 4 14 1017.6 1015.5 0.0
21/11:30am 24.1 19.9 -4.1 15 12.4 E 9 17 5 9 1018.6 1016.5 0.0
21/11:00am 23.5 18.8 -4.6 15 12.1 NNW 11 19 6 10 1019.0 1016.9 0.0
21/10:30am 22.7 19.2 -2.8 18 11.3 SW 6 9 3 5 1019.3 1017.2 0.0
21/10:00am 21.5 17.5 -2.4 20 10.6 SSW 9 15 5 8 1019.6 1017.5 0.0
21/09:30am 20.4 16.1 -2.0 22 9.9 SSW 11 15 6 8 1020.0 1017.9 0.0
21/09:00am 18.7 15.1 -2.3 24 9.1 S 7 13 4 7 1020.0 1017.9 -
21/08:30am 17.4 15.2 -1.8 27 8.3 CALM 0 4 0 2 1019.9 1017.8 -
21/08:00am 14.8 12.5 -2.1 31 7.1 CALM 0 0 0 0 1019.4 1017.3 -
21/07:30am 12.7 9.7 -2.0 36 6.1 E 4 7 2 4 1019.2 1017.1 -
21/07:00am 9.6 5.7 -1.7 45 4.5 E 9 11 5 6 1018.9 1016.8 -
21/06:30am 8.2 3.9 -1.9 49 4.0 E 11 11 6 6 1018.6 1016.5 -
21/06:00am 8.1 4.1 -2.2 48 4.0 E 9 11 5 6 1018.4 1016.2 -
21/05:30am 9.1 4.4 -1.9 46 4.4 E 13 15 7 8 1018.0 1015.9 -
21/05:00am 9.2 5.2 -2.4 44 4.6 E 9 13 5 7 1017.7 1015.6 -
21/04:30am 9.8 6.2 -2.2 43 4.8 E 7 9 4 5 1017.5 1015.4 -
21/04:00am 9.6 5.6 -2.3 43 4.7 ENE 9 11 5 6 1017.4 1015.3 -
21/03:30am 9.9 6.3 -2.4 42 4.9 NNE 7 9 4 5 1017.4 1015.3 -
21/03:00am 9.5 5.5 -2.4 43 4.7 NE 9 9 5 5 1017.4 1015.3 0.0
21/02:30am 9.6 5.9 -2.7 42 4.8 W 7 9 4 5 1017.4 1015.3 -
21/02:00am 9.6 6.5 -2.7 42 4.8 W 4 6 2 3 1017.4 1015.3 -
21/01:30am 11.2 7.6 -2.2 39 5.4 NNE 7 9 4 5 1017.5 1015.4 -
21/01:00am 10.7 7.0 -3.0 38 5.4 N 7 11 4 6 1017.9 1015.8 -
21/12:30am 12.1 8.4 -2.9 35 6.0 S 7 9 4 5 1018.0 1015.9 -
21/12:00am 12.0 8.3 -3.0 35 6.0 W 7 13 4 7 1018.0 1015.9 -
 
Date/Time
WST
Temp
°C
App
Temp
°C
Dew
Point
Rel
Hum
%
Delta-T
°C
Wind Press
QNH
hPa
Press
MSL
hPa
Rain
since 9 am
mm
Dir
 
Spd
km/h
Gust
km/h
Spd
kts
Gust
kts
20/11:30pm 12.7 8.6 -2.7 34 6.2 E 9 11 5 6 1018.1 1016.0 -
20/11:00pm 12.7 9.2 -3.1 33 6.3 WSW 6 7 3 4 1018.4 1016.2 -
20/10:30pm 13.3 10.9 -3.0 32 6.6 CALM 0 7 0 4 1018.4 1016.2 -
20/10:00pm 13.1 9.9 -3.2 32 6.6 WSW 4 9 2 5 1018.5 1016.4 -
20/09:30pm 14.2 11.8 -3.1 30 7.1 CALM 0 0 0 0 1018.6 1016.5 -
20/09:00pm 15.6 13.3 -2.3 29 7.5 CALM 0 0 0 0 1018.5 1016.4 0.0
20/08:30pm 16.3 12.6 -2.7 27 8.0 NNE 7 9 4 5 1018.4 1016.2 -
20/08:00pm 17.3 13.7 -1.9 27 8.3 NNE 7 7 4 4 1018.1 1016.0 -
20/07:30pm 18.1 14.1 -2.2 25 8.8 NNE 9 11 5 6 1017.8 1015.7 -
20/07:00pm 19.2 15.2 -2.4 23 9.4 N 9 11 5 6 1017.5 1015.4 -
20/06:30pm 20.7 16.6 -3.0 20 10.3 N 9 11 5 6 1017.2 1015.0 -
20/06:00pm 22.4 17.9 -3.1 18 11.2 N 11 17 6 9 1016.9 1014.7 -
20/05:30pm 24.0 18.4 -2.5 17 12.0 N 17 24 9 13 1016.5 1014.4 -

Other Formats:

Comma delimited format used in spreadsheet applications
http://www.bom.gov.au/fwo/IDW60801/IDW60801.99312.axf

JavaScript Object Notation format (JSON) in row-major order
http://www.bom.gov.au/fwo/IDW60801/IDW60801.99312.json